sensor_id;sensor_type;location;lat;lon;timestamp;P1;durP1;ratioP1;P2;durP2;ratioP2
15655;SDS011;7928;43.614;1.456;2023-10-19T00:02:44;6.13;;;2.30;;
15655;SDS011;7928;43.614;1.456;2023-10-19T00:05:11;4.27;;;2.30;;
15655;SDS011;7928;43.614;1.456;2023-10-19T00:07:41;5.07;;;2.60;;
15655;SDS011;7928;43.614;1.456;2023-10-19T00:10:08;4.80;;;2.17;;
15655;SDS011;7928;43.614;1.456;2023-10-19T00:12:40;6.03;;;2.13;;
15655;SDS011;7928;43.614;1.456;2023-10-19T00:15:09;4.63;;;2.10;;
15655;SDS011;7928;43.614;1.456;2023-10-19T00:17:36;5.50;;;2.63;;
15655;SDS011;7928;43.614;1.456;2023-10-19T00:20:05;5.37;;;2.90;;
15655;SDS011;7928;43.614;1.456;2023-10-19T00:22:48;4.87;;;2.50;;
15655;SDS011;7928;43.614;1.456;2023-10-19T00:25:17;7.67;;;2.23;;
15655;SDS011;7928;43.614;1.456;2023-10-19T00:27:48;4.60;;;2.10;;
15655;SDS011;7928;43.614;1.456;2023-10-19T00:30:14;6.70;;;2.90;;
15655;SDS011;7928;43.614;1.456;2023-10-19T00:32:43;5.47;;;2.67;;
15655;SDS011;7928;43.614;1.456;2023-10-19T00:35:11;4.23;;;2.50;;
15655;SDS011;7928;43.614;1.456;2023-10-19T00:37:54;5.80;;;2.43;;
15655;SDS011;7928;43.614;1.456;2023-10-19T00:40:42;7.17;;;3.00;;
15655;SDS011;7928;43.614;1.456;2023-10-19T00:43:12;5.27;;;2.37;;
15655;SDS011;7928;43.614;1.456;2023-10-19T00:45:43;5.90;;;2.10;;
15655;SDS011;7928;43.614;1.456;2023-10-19T00:48:13;6.00;;;2.77;;
15655;SDS011;7928;43.614;1.456;2023-10-19T00:50:42;5.33;;;2.60;;
15655;SDS011;7928;43.614;1.456;2023-10-19T00:53:14;4.03;;;2.67;;
15655;SDS011;7928;43.614;1.456;2023-10-19T00:55:42;3.47;;;2.40;;
15655;SDS011;7928;43.614;1.456;2023-10-19T00:58:10;4.87;;;2.37;;
15655;SDS011;7928;43.614;1.456;2023-10-19T01:00:43;4.03;;;2.30;;
15655;SDS011;7928;43.614;1.456;2023-10-19T01:03:10;4.17;;;2.63;;
15655;SDS011;7928;43.614;1.456;2023-10-19T01:05:42;3.97;;;2.03;;
15655;SDS011;7928;43.614;1.456;2023-10-19T01:08:15;6.13;;;2.20;;
15655;SDS011;7928;43.614;1.456;2023-10-19T01:10:49;5.40;;;2.37;;
15655;SDS011;7928;43.614;1.456;2023-10-19T01:13:18;3.07;;;2.03;;
15655;SDS011;7928;43.614;1.456;2023-10-19T01:15:52;7.07;;;3.23;;
15655;SDS011;7928;43.614;1.456;2023-10-19T01:18:21;5.03;;;2.27;;
15655;SDS011;7928;43.614;1.456;2023-10-19T01:20:54;6.87;;;3.00;;
15655;SDS011;7928;43.614;1.456;2023-10-19T01:23:22;4.53;;;2.63;;
15655;SDS011;7928;43.614;1.456;2023-10-19T01:25:54;5.63;;;2.87;;
15655;SDS011;7928;43.614;1.456;2023-10-19T01:28:28;6.97;;;2.60;;
15655;SDS011;7928;43.614;1.456;2023-10-19T01:31:07;4.80;;;2.53;;
15655;SDS011;7928;43.614;1.456;2023-10-19T01:33:39;5.93;;;2.50;;
15655;SDS011;7928;43.614;1.456;2023-10-19T01:36:09;6.03;;;2.27;;
15655;SDS011;7928;43.614;1.456;2023-10-19T01:38:51;5.17;;;2.33;;
15655;SDS011;7928;43.614;1.456;2023-10-19T01:41:19;5.03;;;2.37;;
15655;SDS011;7928;43.614;1.456;2023-10-19T01:43:47;4.77;;;2.30;;
15655;SDS011;7928;43.614;1.456;2023-10-19T01:46:14;4.63;;;2.47;;
15655;SDS011;7928;43.614;1.456;2023-10-19T01:48:49;7.87;;;3.13;;
15655;SDS011;7928;43.614;1.456;2023-10-19T01:51:20;6.00;;;2.47;;
15655;SDS011;7928;43.614;1.456;2023-10-19T01:53:50;5.10;;;2.57;;
15655;SDS011;7928;43.614;1.456;2023-10-19T01:56:16;6.40;;;2.87;;
15655;SDS011;7928;43.614;1.456;2023-10-19T01:58:46;6.70;;;2.40;;
15655;SDS011;7928;43.614;1.456;2023-10-19T02:01:13;6.63;;;2.80;;
15655;SDS011;7928;43.614;1.456;2023-10-19T02:03:46;5.77;;;2.90;;
15655;SDS011;7928;43.614;1.456;2023-10-19T02:06:13;7.27;;;3.03;;
15655;SDS011;7928;43.614;1.456;2023-10-19T02:08:44;12.73;;;3.43;;
15655;SDS011;7928;43.614;1.456;2023-10-19T02:11:14;6.13;;;2.90;;
15655;SDS011;7928;43.614;1.456;2023-10-19T02:13:44;5.47;;;2.83;;
15655;SDS011;7928;43.614;1.456;2023-10-19T02:16:13;8.27;;;3.60;;
15655;SDS011;7928;43.614;1.456;2023-10-19T02:18:41;8.43;;;3.40;;
15655;SDS011;7928;43.614;1.456;2023-10-19T02:21:09;7.97;;;3.37;;
15655;SDS011;7928;43.614;1.456;2023-10-19T02:23:37;10.00;;;3.77;;
15655;SDS011;7928;43.614;1.456;2023-10-19T02:26:06;9.10;;;3.73;;
15655;SDS011;7928;43.614;1.456;2023-10-19T02:28:34;6.33;;;3.60;;
15655;SDS011;7928;43.614;1.456;2023-10-19T02:31:04;11.17;;;3.83;;
15655;SDS011;7928;43.614;1.456;2023-10-19T02:33:39;12.00;;;4.37;;
15655;SDS011;7928;43.614;1.456;2023-10-19T02:36:06;7.43;;;3.33;;
15655;SDS011;7928;43.614;1.456;2023-10-19T02:38:38;12.57;;;4.33;;
15655;SDS011;7928;43.614;1.456;2023-10-19T02:41:06;13.63;;;4.90;;
15655;SDS011;7928;43.614;1.456;2023-10-19T02:43:36;13.00;;;4.30;;
15655;SDS011;7928;43.614;1.456;2023-10-19T02:46:03;12.13;;;3.80;;
15655;SDS011;7928;43.614;1.456;2023-10-19T02:48:30;17.27;;;4.80;;
15655;SDS011;7928;43.614;1.456;2023-10-19T02:50:56;13.77;;;3.90;;
15655;SDS011;7928;43.614;1.456;2023-10-19T02:53:31;13.73;;;4.70;;
15655;SDS011;7928;43.614;1.456;2023-10-19T02:55:59;15.53;;;4.30;;
15655;SDS011;7928;43.614;1.456;2023-10-19T02:58:36;15.40;;;4.40;;
15655;SDS011;7928;43.614;1.456;2023-10-19T03:01:11;14.60;;;4.60;;
15655;SDS011;7928;43.614;1.456;2023-10-19T03:03:39;16.63;;;4.20;;
15655;SDS011;7928;43.614;1.456;2023-10-19T03:06:08;14.47;;;4.27;;
15655;SDS011;7928;43.614;1.456;2023-10-19T03:08:36;15.57;;;4.37;;
15655;SDS011;7928;43.614;1.456;2023-10-19T03:11:02;16.07;;;3.53;;
15655;SDS011;7928;43.614;1.456;2023-10-19T03:13:35;11.83;;;4.40;;
15655;SDS011;7928;43.614;1.456;2023-10-19T03:16:01;13.77;;;4.10;;
15655;SDS011;7928;43.614;1.456;2023-10-19T03:18:32;9.70;;;3.03;;
15655;SDS011;7928;43.614;1.456;2023-10-19T03:20:58;13.57;;;4.40;;
15655;SDS011;7928;43.614;1.456;2023-10-19T03:23:26;14.33;;;4.10;;
15655;SDS011;7928;43.614;1.456;2023-10-19T03:25:54;12.67;;;3.53;;
15655;SDS011;7928;43.614;1.456;2023-10-19T03:28:37;12.60;;;3.50;;
15655;SDS011;7928;43.614;1.456;2023-10-19T03:31:05;12.30;;;3.77;;
15655;SDS011;7928;43.614;1.456;2023-10-19T03:33:33;12.73;;;3.70;;
15655;SDS011;7928;43.614;1.456;2023-10-19T03:36:01;10.00;;;2.87;;
15655;SDS011;7928;43.614;1.456;2023-10-19T03:38:30;12.53;;;3.20;;
15655;SDS011;7928;43.614;1.456;2023-10-19T03:41:02;10.10;;;2.93;;
15655;SDS011;7928;43.614;1.456;2023-10-19T03:43:32;12.33;;;3.57;;
15655;SDS011;7928;43.614;1.456;2023-10-19T03:46:03;13.33;;;3.80;;
15655;SDS011;7928;43.614;1.456;2023-10-19T03:48:34;10.07;;;2.93;;
15655;SDS011;7928;43.614;1.456;2023-10-19T03:51:04;12.63;;;2.70;;
15655;SDS011;7928;43.614;1.456;2023-10-19T03:53:31;11.70;;;3.93;;
15655;SDS011;7928;43.614;1.456;2023-10-19T03:56:03;11.30;;;2.83;;
15655;SDS011;7928;43.614;1.456;2023-10-19T03:58:35;8.40;;;2.77;;
15655;SDS011;7928;43.614;1.456;2023-10-19T04:01:05;11.20;;;3.60;;
15655;SDS011;7928;43.614;1.456;2023-10-19T04:03:32;13.00;;;3.83;;
15655;SDS011;7928;43.614;1.456;2023-10-19T04:06:01;8.60;;;3.17;;
15655;SDS011;7928;43.614;1.456;2023-10-19T04:08:30;11.20;;;2.90;;
15655;SDS011;7928;43.614;1.456;2023-10-19T04:11:02;8.93;;;2.97;;
15655;SDS011;7928;43.614;1.456;2023-10-19T04:13:37;10.67;;;2.90;;
15655;SDS011;7928;43.614;1.456;2023-10-19T04:16:05;8.83;;;2.23;;
15655;SDS011;7928;43.614;1.456;2023-10-19T04:18:35;7.37;;;2.40;;
15655;SDS011;7928;43.614;1.456;2023-10-19T04:21:08;10.57;;;3.33;;
15655;SDS011;7928;43.614;1.456;2023-10-19T04:23:35;11.13;;;3.93;;
15655;SDS011;7928;43.614;1.456;2023-10-19T04:26:02;12.10;;;3.37;;
15655;SDS011;7928;43.614;1.456;2023-10-19T04:28:36;11.27;;;2.90;;
15655;SDS011;7928;43.614;1.456;2023-10-19T04:31:11;10.80;;;2.90;;
15655;SDS011;7928;43.614;1.456;2023-10-19T04:33:41;11.00;;;3.07;;
15655;SDS011;7928;43.614;1.456;2023-10-19T04:36:11;8.23;;;3.07;;
15655;SDS011;7928;43.614;1.456;2023-10-19T04:38:39;9.33;;;2.90;;
15655;SDS011;7928;43.614;1.456;2023-10-19T04:41:06;9.30;;;3.00;;
15655;SDS011;7928;43.614;1.456;2023-10-19T04:43:34;11.03;;;3.17;;
15655;SDS011;7928;43.614;1.456;2023-10-19T04:46:06;10.67;;;3.00;;
15655;SDS011;7928;43.614;1.456;2023-10-19T04:48:37;10.97;;;3.03;;
15655;SDS011;7928;43.614;1.456;2023-10-19T04:51:09;8.73;;;3.30;;
15655;SDS011;7928;43.614;1.456;2023-10-19T04:53:36;7.43;;;2.80;;
15655;SDS011;7928;43.614;1.456;2023-10-19T04:56:03;8.03;;;2.20;;
15655;SDS011;7928;43.614;1.456;2023-10-19T04:58:32;9.33;;;2.77;;
15655;SDS011;7928;43.614;1.456;2023-10-19T05:00:59;13.17;;;2.63;;
15655;SDS011;7928;43.614;1.456;2023-10-19T05:03:26;8.90;;;2.40;;
15655;SDS011;7928;43.614;1.456;2023-10-19T05:05:56;7.13;;;2.27;;
15655;SDS011;7928;43.614;1.456;2023-10-19T05:08:23;5.90;;;2.00;;
15655;SDS011;7928;43.614;1.456;2023-10-19T05:10:52;3.83;;;2.00;;
15655;SDS011;7928;43.614;1.456;2023-10-19T05:13:20;8.03;;;2.03;;
15655;SDS011;7928;43.614;1.456;2023-10-19T05:15:48;8.93;;;2.40;;
15655;SDS011;7928;43.614;1.456;2023-10-19T05:18:15;7.47;;;2.07;;
15655;SDS011;7928;43.614;1.456;2023-10-19T05:20:41;8.43;;;1.70;;
15655;SDS011;7928;43.614;1.456;2023-10-19T05:23:10;5.97;;;1.80;;
15655;SDS011;7928;43.614;1.456;2023-10-19T05:25:38;7.13;;;1.70;;
15655;SDS011;7928;43.614;1.456;2023-10-19T05:28:05;5.93;;;1.83;;
15655;SDS011;7928;43.614;1.456;2023-10-19T05:30:35;5.10;;;1.30;;
15655;SDS011;7928;43.614;1.456;2023-10-19T05:33:02;5.17;;;1.40;;
15655;SDS011;7928;43.614;1.456;2023-10-19T05:35:31;6.40;;;1.70;;
15655;SDS011;7928;43.614;1.456;2023-10-19T05:38:00;8.47;;;1.80;;
15655;SDS011;7928;43.614;1.456;2023-10-19T05:40:29;4.97;;;1.77;;
15655;SDS011;7928;43.614;1.456;2023-10-19T05:42:56;6.83;;;1.40;;
15655;SDS011;7928;43.614;1.456;2023-10-19T05:45:26;5.37;;;2.20;;
15655;SDS011;7928;43.614;1.456;2023-10-19T05:47:53;6.47;;;1.93;;
15655;SDS011;7928;43.614;1.456;2023-10-19T05:50:21;9.30;;;2.80;;
15655;SDS011;7928;43.614;1.456;2023-10-19T05:52:48;5.87;;;1.90;;
15655;SDS011;7928;43.614;1.456;2023-10-19T05:55:17;4.50;;;2.10;;
15655;SDS011;7928;43.614;1.456;2023-10-19T05:57:47;5.60;;;1.73;;
15655;SDS011;7928;43.614;1.456;2023-10-19T06:00:14;7.43;;;1.87;;
15655;SDS011;7928;43.614;1.456;2023-10-19T06:02:46;7.57;;;2.37;;
15655;SDS011;7928;43.614;1.456;2023-10-19T06:05:14;9.20;;;2.20;;
15655;SDS011;7928;43.614;1.456;2023-10-19T06:07:42;6.83;;;1.83;;
15655;SDS011;7928;43.614;1.456;2023-10-19T06:10:10;3.03;;;1.53;;
15655;SDS011;7928;43.614;1.456;2023-10-19T06:12:41;4.03;;;1.70;;
15655;SDS011;7928;43.614;1.456;2023-10-19T06:15:10;4.83;;;2.00;;
15655;SDS011;7928;43.614;1.456;2023-10-19T06:17:38;6.77;;;2.27;;
15655;SDS011;7928;43.614;1.456;2023-10-19T06:20:06;6.37;;;2.07;;
15655;SDS011;7928;43.614;1.456;2023-10-19T06:22:45;5.17;;;1.93;;
15655;SDS011;7928;43.614;1.456;2023-10-19T06:25:15;6.67;;;2.30;;
15655;SDS011;7928;43.614;1.456;2023-10-19T06:27:43;7.07;;;2.87;;
15655;SDS011;7928;43.614;1.456;2023-10-19T06:30:13;8.10;;;2.20;;
15655;SDS011;7928;43.614;1.456;2023-10-19T06:32:44;7.13;;;2.10;;
15655;SDS011;7928;43.614;1.456;2023-10-19T06:35:13;8.63;;;2.40;;
15655;SDS011;7928;43.614;1.456;2023-10-19T06:37:41;10.30;;;4.33;;
15655;SDS011;7928;43.614;1.456;2023-10-19T06:40:09;10.50;;;2.63;;
15655;SDS011;7928;43.614;1.456;2023-10-19T06:42:37;9.57;;;2.70;;
15655;SDS011;7928;43.614;1.456;2023-10-19T06:45:05;10.47;;;2.83;;
15655;SDS011;7928;43.614;1.456;2023-10-19T06:47:36;6.93;;;2.60;;
15655;SDS011;7928;43.614;1.456;2023-10-19T06:50:04;10.00;;;2.97;;
15655;SDS011;7928;43.614;1.456;2023-10-19T06:52:35;8.50;;;2.70;;
15655;SDS011;7928;43.614;1.456;2023-10-19T06:55:03;7.90;;;2.50;;
15655;SDS011;7928;43.614;1.456;2023-10-19T06:57:30;11.60;;;3.47;;
15655;SDS011;7928;43.614;1.456;2023-10-19T06:59:58;8.57;;;2.53;;
15655;SDS011;7928;43.614;1.456;2023-10-19T07:02:32;7.47;;;2.40;;
15655;SDS011;7928;43.614;1.456;2023-10-19T07:04:59;6.10;;;2.47;;
15655;SDS011;7928;43.614;1.456;2023-10-19T07:07:28;7.87;;;3.17;;
15655;SDS011;7928;43.614;1.456;2023-10-19T07:09:55;8.83;;;2.40;;
15655;SDS011;7928;43.614;1.456;2023-10-19T07:12:22;6.63;;;2.50;;
15655;SDS011;7928;43.614;1.456;2023-10-19T07:14:49;9.63;;;2.33;;
15655;SDS011;7928;43.614;1.456;2023-10-19T07:17:16;7.27;;;2.17;;
15655;SDS011;7928;43.614;1.456;2023-10-19T07:19:43;11.57;;;2.70;;
15655;SDS011;7928;43.614;1.456;2023-10-19T07:22:15;10.13;;;2.53;;
15655;SDS011;7928;43.614;1.456;2023-10-19T07:24:42;8.73;;;2.70;;
15655;SDS011;7928;43.614;1.456;2023-10-19T07:27:09;11.80;;;2.77;;
15655;SDS011;7928;43.614;1.456;2023-10-19T07:29:43;10.30;;;3.10;;
15655;SDS011;7928;43.614;1.456;2023-10-19T07:32:10;7.53;;;1.80;;
15655;SDS011;7928;43.614;1.456;2023-10-19T07:34:39;7.67;;;2.70;;
15655;SDS011;7928;43.614;1.456;2023-10-19T07:37:06;8.87;;;2.50;;
15655;SDS011;7928;43.614;1.456;2023-10-19T07:39:34;6.90;;;2.20;;
15655;SDS011;7928;43.614;1.456;2023-10-19T07:42:04;8.97;;;3.03;;
15655;SDS011;7928;43.614;1.456;2023-10-19T07:44:32;7.23;;;2.83;;
15655;SDS011;7928;43.614;1.456;2023-10-19T07:46:59;7.40;;;2.80;;
15655;SDS011;7928;43.614;1.456;2023-10-19T07:49:26;10.80;;;3.90;;
15655;SDS011;7928;43.614;1.456;2023-10-19T07:51:53;9.50;;;2.67;;
15655;SDS011;7928;43.614;1.456;2023-10-19T07:54:20;8.37;;;3.00;;
15655;SDS011;7928;43.614;1.456;2023-10-19T07:56:48;7.40;;;2.07;;
15655;SDS011;7928;43.614;1.456;2023-10-19T07:59:16;7.47;;;2.40;;
15655;SDS011;7928;43.614;1.456;2023-10-19T08:01:43;3.93;;;1.93;;
15655;SDS011;7928;43.614;1.456;2023-10-19T08:04:11;6.13;;;2.33;;
15655;SDS011;7928;43.614;1.456;2023-10-19T08:06:38;8.87;;;2.33;;
15655;SDS011;7928;43.614;1.456;2023-10-19T08:09:05;7.73;;;2.67;;
15655;SDS011;7928;43.614;1.456;2023-10-19T08:11:32;7.10;;;2.37;;
15655;SDS011;7928;43.614;1.456;2023-10-19T08:14:01;9.57;;;2.63;;
15655;SDS011;7928;43.614;1.456;2023-10-19T08:16:28;6.90;;;2.03;;
15655;SDS011;7928;43.614;1.456;2023-10-19T08:18:55;6.43;;;1.93;;
15655;SDS011;7928;43.614;1.456;2023-10-19T08:21:22;8.00;;;1.90;;
15655;SDS011;7928;43.614;1.456;2023-10-19T08:23:51;10.80;;;2.80;;
15655;SDS011;7928;43.614;1.456;2023-10-19T08:26:18;9.57;;;2.73;;
15655;SDS011;7928;43.614;1.456;2023-10-19T08:28:46;6.87;;;2.20;;
15655;SDS011;7928;43.614;1.456;2023-10-19T08:31:16;7.43;;;2.30;;
15655;SDS011;7928;43.614;1.456;2023-10-19T08:33:43;7.80;;;2.43;;
15655;SDS011;7928;43.614;1.456;2023-10-19T08:36:17;8.47;;;2.90;;
15655;SDS011;7928;43.614;1.456;2023-10-19T08:38:45;10.90;;;2.57;;
15655;SDS011;7928;43.614;1.456;2023-10-19T08:41:13;10.27;;;2.60;;
15655;SDS011;7928;43.614;1.456;2023-10-19T08:43:40;9.73;;;2.60;;
15655;SDS011;7928;43.614;1.456;2023-10-19T08:46:07;8.70;;;2.40;;
15655;SDS011;7928;43.614;1.456;2023-10-19T08:48:38;8.13;;;3.10;;
15655;SDS011;7928;43.614;1.456;2023-10-19T08:51:08;7.23;;;2.60;;
15655;SDS011;7928;43.614;1.456;2023-10-19T08:53:36;13.07;;;2.70;;
15655;SDS011;7928;43.614;1.456;2023-10-19T08:56:06;7.63;;;3.00;;
15655;SDS011;7928;43.614;1.456;2023-10-19T08:58:34;7.87;;;2.67;;
15655;SDS011;7928;43.614;1.456;2023-10-19T09:01:01;8.60;;;3.10;;
15655;SDS011;7928;43.614;1.456;2023-10-19T09:03:35;5.93;;;2.23;;
15655;SDS011;7928;43.614;1.456;2023-10-19T09:06:05;9.83;;;4.40;;
15655;SDS011;7928;43.614;1.456;2023-10-19T09:08:32;10.07;;;2.10;;
15655;SDS011;7928;43.614;1.456;2023-10-19T09:11:12;8.87;;;2.57;;
15655;SDS011;7928;43.614;1.456;2023-10-19T09:13:45;11.00;;;2.80;;
15655;SDS011;7928;43.614;1.456;2023-10-19T09:16:15;7.87;;;2.57;;
15655;SDS011;7928;43.614;1.456;2023-10-19T09:18:43;9.53;;;2.90;;
15655;SDS011;7928;43.614;1.456;2023-10-19T09:21:14;9.80;;;3.13;;
15655;SDS011;7928;43.614;1.456;2023-10-19T09:23:49;15.33;;;3.17;;
15655;SDS011;7928;43.614;1.456;2023-10-19T09:26:16;9.27;;;2.77;;
15655;SDS011;7928;43.614;1.456;2023-10-19T09:28:46;8.80;;;2.93;;
15655;SDS011;7928;43.614;1.456;2023-10-19T09:31:13;10.70;;;2.80;;
15655;SDS011;7928;43.614;1.456;2023-10-19T09:33:41;10.93;;;3.30;;
15655;SDS011;7928;43.614;1.456;2023-10-19T09:36:10;13.00;;;3.10;;
15655;SDS011;7928;43.614;1.456;2023-10-19T09:38:42;11.47;;;3.37;;
15655;SDS011;7928;43.614;1.456;2023-10-19T09:41:13;8.10;;;3.77;;
15655;SDS011;7928;43.614;1.456;2023-10-19T09:43:43;9.73;;;3.20;;
15655;SDS011;7928;43.614;1.456;2023-10-19T09:46:11;13.60;;;3.47;;
15655;SDS011;7928;43.614;1.456;2023-10-19T09:48:49;8.80;;;3.70;;
15655;SDS011;7928;43.614;1.456;2023-10-19T09:51:19;12.20;;;3.23;;
15655;SDS011;7928;43.614;1.456;2023-10-19T09:53:48;11.33;;;3.17;;
15655;SDS011;7928;43.614;1.456;2023-10-19T09:56:20;10.80;;;2.77;;
15655;SDS011;7928;43.614;1.456;2023-10-19T09:58:53;8.23;;;3.27;;
15655;SDS011;7928;43.614;1.456;2023-10-19T10:01:21;9.43;;;3.47;;
15655;SDS011;7928;43.614;1.456;2023-10-19T10:03:49;7.13;;;2.80;;
15655;SDS011;7928;43.614;1.456;2023-10-19T10:06:27;8.23;;;3.23;;
15655;SDS011;7928;43.614;1.456;2023-10-19T10:08:55;5.87;;;2.50;;
15655;SDS011;7928;43.614;1.456;2023-10-19T10:11:23;9.00;;;2.90;;
15655;SDS011;7928;43.614;1.456;2023-10-19T10:13:51;6.17;;;2.73;;
15655;SDS011;7928;43.614;1.456;2023-10-19T10:16:21;9.67;;;3.10;;
15655;SDS011;7928;43.614;1.456;2023-10-19T10:18:50;12.73;;;3.20;;
15655;SDS011;7928;43.614;1.456;2023-10-19T10:21:25;9.60;;;3.33;;
15655;SDS011;7928;43.614;1.456;2023-10-19T10:23:55;10.67;;;3.13;;
15655;SDS011;7928;43.614;1.456;2023-10-19T10:26:23;11.37;;;3.13;;
15655;SDS011;7928;43.614;1.456;2023-10-19T10:29:08;10.20;;;2.90;;
15655;SDS011;7928;43.614;1.456;2023-10-19T10:31:40;9.03;;;3.13;;
15655;SDS011;7928;43.614;1.456;2023-10-19T10:34:09;9.87;;;3.67;;
15655;SDS011;7928;43.614;1.456;2023-10-19T10:39:25;8.13;;;2.93;;
15655;SDS011;7928;43.614;1.456;2023-10-19T10:41:55;8.00;;;3.30;;
15655;SDS011;7928;43.614;1.456;2023-10-19T10:44:35;8.13;;;3.33;;
15655;SDS011;7928;43.614;1.456;2023-10-19T10:47:03;8.80;;;3.37;;
15655;SDS011;7928;43.614;1.456;2023-10-19T10:49:31;13.03;;;3.30;;
15655;SDS011;7928;43.614;1.456;2023-10-19T10:52:00;10.93;;;3.47;;
15655;SDS011;7928;43.614;1.456;2023-10-19T10:54:27;11.83;;;3.63;;
15655;SDS011;7928;43.614;1.456;2023-10-19T10:56:54;8.90;;;3.13;;
15655;SDS011;7928;43.614;1.456;2023-10-19T10:59:21;8.07;;;3.23;;
15655;SDS011;7928;43.614;1.456;2023-10-19T11:01:48;9.67;;;3.00;;
15655;SDS011;7928;43.614;1.456;2023-10-19T11:04:15;9.23;;;2.87;;
15655;SDS011;7928;43.614;1.456;2023-10-19T11:06:45;8.33;;;2.97;;
15655;SDS011;7928;43.614;1.456;2023-10-19T11:09:17;7.63;;;3.00;;
15655;SDS011;7928;43.614;1.456;2023-10-19T11:11:44;10.63;;;3.13;;
15655;SDS011;7928;43.614;1.456;2023-10-19T11:14:12;11.00;;;3.57;;
15655;SDS011;7928;43.614;1.456;2023-10-19T11:16:39;7.13;;;3.13;;
15655;SDS011;7928;43.614;1.456;2023-10-19T11:19:06;11.63;;;2.97;;
15655;SDS011;7928;43.614;1.456;2023-10-19T11:21:34;8.97;;;2.60;;
15655;SDS011;7928;43.614;1.456;2023-10-19T11:24:02;8.07;;;3.80;;
15655;SDS011;7928;43.614;1.456;2023-10-19T11:26:30;7.45;;;2.70;;
15655;SDS011;7928;43.614;1.456;2023-10-19T11:29:05;10.23;;;2.93;;
15655;SDS011;7928;43.614;1.456;2023-10-19T11:31:34;5.97;;;2.10;;
15655;SDS011;7928;43.614;1.456;2023-10-19T11:34:04;8.85;;;3.22;;
15655;SDS011;7928;43.614;1.456;2023-10-19T11:36:33;8.18;;;2.90;;
15655;SDS011;7928;43.614;1.456;2023-10-19T11:39:00;7.03;;;2.92;;
15655;SDS011;7928;43.614;1.456;2023-10-19T11:41:30;8.85;;;3.05;;
15655;SDS011;7928;43.614;1.456;2023-10-19T11:43:58;10.15;;;2.97;;
15655;SDS011;7928;43.614;1.456;2023-10-19T11:46:25;6.68;;;3.13;;
15655;SDS011;7928;43.614;1.456;2023-10-19T11:48:54;8.88;;;2.90;;
15655;SDS011;7928;43.614;1.456;2023-10-19T11:51:21;7.68;;;2.88;;
15655;SDS011;7928;43.614;1.456;2023-10-19T11:53:48;7.35;;;3.33;;
15655;SDS011;7928;43.614;1.456;2023-10-19T11:56:15;8.63;;;3.33;;
15655;SDS011;7928;43.614;1.456;2023-10-19T11:58:44;9.82;;;3.20;;
15655;SDS011;7928;43.614;1.456;2023-10-19T12:01:12;8.52;;;3.22;;
15655;SDS011;7928;43.614;1.456;2023-10-19T12:03:41;8.15;;;3.03;;
15655;SDS011;7928;43.614;1.456;2023-10-19T12:06:10;6.85;;;3.20;;
15655;SDS011;7928;43.614;1.456;2023-10-19T12:08:44;6.22;;;3.00;;
15655;SDS011;7928;43.614;1.456;2023-10-19T12:11:11;6.15;;;2.50;;
15655;SDS011;7928;43.614;1.456;2023-10-19T12:13:41;7.05;;;3.03;;
15655;SDS011;7928;43.614;1.456;2023-10-19T12:16:10;7.55;;;3.00;;
15655;SDS011;7928;43.614;1.456;2023-10-19T12:18:40;6.70;;;2.83;;
15655;SDS011;7928;43.614;1.456;2023-10-19T12:21:08;6.93;;;3.03;;
15655;SDS011;7928;43.614;1.456;2023-10-19T12:23:36;8.18;;;2.90;;
15655;SDS011;7928;43.614;1.456;2023-10-19T12:26:05;7.20;;;3.03;;
15655;SDS011;7928;43.614;1.456;2023-10-19T12:28:36;7.00;;;2.78;;
15655;SDS011;7928;43.614;1.456;2023-10-19T12:31:05;6.72;;;2.33;;
15655;SDS011;7928;43.614;1.456;2023-10-19T12:33:33;5.80;;;2.97;;
15655;SDS011;7928;43.614;1.456;2023-10-19T12:36:00;5.95;;;2.13;;
15655;SDS011;7928;43.614;1.456;2023-10-19T12:38:47;5.72;;;2.45;;
15655;SDS011;7928;43.614;1.456;2023-10-19T12:41:14;6.30;;;2.83;;
15655;SDS011;7928;43.614;1.456;2023-10-19T12:43:42;7.45;;;2.40;;
15655;SDS011;7928;43.614;1.456;2023-10-19T12:46:12;9.07;;;2.92;;
15655;SDS011;7928;43.614;1.456;2023-10-19T12:48:39;5.82;;;2.13;;
15655;SDS011;7928;43.614;1.456;2023-10-19T12:51:06;8.27;;;2.65;;
15655;SDS011;7928;43.614;1.456;2023-10-19T12:53:34;6.70;;;2.20;;
15655;SDS011;7928;43.614;1.456;2023-10-19T12:56:02;6.93;;;2.25;;
15655;SDS011;7928;43.614;1.456;2023-10-19T12:58:30;8.20;;;2.60;;
15655;SDS011;7928;43.614;1.456;2023-10-19T13:00:57;5.00;;;2.20;;
15655;SDS011;7928;43.614;1.456;2023-10-19T13:03:26;5.38;;;2.10;;
15655;SDS011;7928;43.614;1.456;2023-10-19T13:05:56;7.00;;;2.05;;
15655;SDS011;7928;43.614;1.456;2023-10-19T13:08:24;6.95;;;2.40;;
15655;SDS011;7928;43.614;1.456;2023-10-19T13:10:52;7.57;;;2.78;;
15655;SDS011;7928;43.614;1.456;2023-10-19T13:13:20;5.90;;;2.33;;
15655;SDS011;7928;43.614;1.456;2023-10-19T13:15:49;6.45;;;2.40;;
15655;SDS011;7928;43.614;1.456;2023-10-19T13:18:18;6.13;;;2.50;;
15655;SDS011;7928;43.614;1.456;2023-10-19T13:20:48;8.75;;;2.70;;
15655;SDS011;7928;43.614;1.456;2023-10-19T13:23:15;6.50;;;2.45;;
15655;SDS011;7928;43.614;1.456;2023-10-19T13:25:44;6.30;;;2.47;;
15655;SDS011;7928;43.614;1.456;2023-10-19T13:28:18;7.70;;;2.60;;
15655;SDS011;7928;43.614;1.456;2023-10-19T13:30:47;8.07;;;2.53;;
15655;SDS011;7928;43.614;1.456;2023-10-19T13:33:16;7.72;;;3.13;;
15655;SDS011;7928;43.614;1.456;2023-10-19T13:35:44;9.20;;;2.80;;
15655;SDS011;7928;43.614;1.456;2023-10-19T13:38:15;11.13;;;3.20;;
15655;SDS011;7928;43.614;1.456;2023-10-19T13:40:45;6.72;;;2.85;;
15655;SDS011;7928;43.614;1.456;2023-10-19T13:43:14;7.80;;;2.90;;
15655;SDS011;7928;43.614;1.456;2023-10-19T13:45:43;9.70;;;2.95;;
15655;SDS011;7928;43.614;1.456;2023-10-19T13:48:12;8.25;;;2.88;;
15655;SDS011;7928;43.614;1.456;2023-10-19T13:50:41;6.83;;;2.83;;
15655;SDS011;7928;43.614;1.456;2023-10-19T13:53:09;6.65;;;2.67;;
15655;SDS011;7928;43.614;1.456;2023-10-19T13:55:38;5.35;;;2.58;;
15655;SDS011;7928;43.614;1.456;2023-10-19T13:58:05;7.50;;;3.00;;
15655;SDS011;7928;43.614;1.456;2023-10-19T14:00:32;10.63;;;4.97;;
15655;SDS011;7928;43.614;1.456;2023-10-19T14:03:06;12.70;;;3.03;;
15655;SDS011;7928;43.614;1.456;2023-10-19T14:05:35;6.60;;;3.08;;
15655;SDS011;7928;43.614;1.456;2023-10-19T14:08:04;7.20;;;3.27;;
15655;SDS011;7928;43.614;1.456;2023-10-19T14:10:32;7.53;;;3.13;;
15655;SDS011;7928;43.614;1.456;2023-10-19T14:13:00;5.67;;;2.50;;
15655;SDS011;7928;43.614;1.456;2023-10-19T14:15:27;6.82;;;3.10;;
15655;SDS011;7928;43.614;1.456;2023-10-19T14:17:56;8.07;;;3.30;;
15655;SDS011;7928;43.614;1.456;2023-10-19T14:20:24;9.10;;;3.63;;
15655;SDS011;7928;43.614;1.456;2023-10-19T14:22:51;8.87;;;3.20;;
15655;SDS011;7928;43.614;1.456;2023-10-19T14:25:20;7.95;;;2.78;;
15655;SDS011;7928;43.614;1.456;2023-10-19T14:27:48;9.47;;;3.07;;
15655;SDS011;7928;43.614;1.456;2023-10-19T14:30:18;6.07;;;2.67;;
15655;SDS011;7928;43.614;1.456;2023-10-19T14:32:48;10.17;;;3.13;;
15655;SDS011;7928;43.614;1.456;2023-10-19T14:35:15;6.40;;;2.70;;
15655;SDS011;7928;43.614;1.456;2023-10-19T14:37:44;5.30;;;2.80;;
15655;SDS011;7928;43.614;1.456;2023-10-19T14:40:13;7.37;;;2.53;;
15655;SDS011;7928;43.614;1.456;2023-10-19T14:42:41;7.97;;;2.70;;
15655;SDS011;7928;43.614;1.456;2023-10-19T14:45:11;9.47;;;2.93;;
15655;SDS011;7928;43.614;1.456;2023-10-19T14:47:45;9.63;;;3.20;;
15655;SDS011;7928;43.614;1.456;2023-10-19T14:50:13;6.53;;;2.65;;
15655;SDS011;7928;43.614;1.456;2023-10-19T14:52:43;11.03;;;3.33;;
15655;SDS011;7928;43.614;1.456;2023-10-19T14:55:11;8.80;;;3.43;;
15655;SDS011;7928;43.614;1.456;2023-10-19T14:57:41;6.53;;;2.88;;
15655;SDS011;7928;43.614;1.456;2023-10-19T15:00:10;7.13;;;2.93;;
15655;SDS011;7928;43.614;1.456;2023-10-19T15:02:43;7.13;;;2.90;;
15655;SDS011;7928;43.614;1.456;2023-10-19T15:05:11;15.02;;;3.40;;
15655;SDS011;7928;43.614;1.456;2023-10-19T15:07:41;11.18;;;3.40;;
15655;SDS011;7928;43.614;1.456;2023-10-19T15:10:10;7.50;;;3.07;;
15655;SDS011;7928;43.614;1.456;2023-10-19T15:12:38;8.07;;;2.93;;
15655;SDS011;7928;43.614;1.456;2023-10-19T15:15:05;8.00;;;3.37;;